sensor_id;sensor_type;location;lat;lon;timestamp;pressure;altitude;pressure_sealevel;temperature;humidity
75656;BME280;64252;51.094;13.714;2023-05-29T01:00:25;100685.75;;;9.81;85.99
75656;BME280;64252;51.094;13.714;2023-05-29T01:03:28;100691.38;;;9.81;86.48
75656;BME280;64252;51.094;13.714;2023-05-29T01:06:15;100679.22;;;9.77;86.49
75656;BME280;64252;51.094;13.714;2023-05-29T01:09:37;100685.63;;;9.74;87.35
75656;BME280;64252;51.094;13.714;2023-05-29T01:51:58;100678.09;;;9.36;88.53
75656;BME280;64252;51.094;13.714;2023-05-29T02:12:20;100683.16;;;9.07;90.03
75656;BME280;64252;51.094;13.714;2023-05-29T02:29:57;100688.03;;;8.72;90.86
75656;BME280;64252;51.094;13.714;2023-05-29T02:45:09;100710.78;;;8.63;91.73
75656;BME280;64252;51.094;13.714;2023-05-29T03:00:14;100739.94;;;8.71;92.34
75656;BME280;64252;51.094;13.714;2023-05-29T03:02:42;100737.25;;;8.78;91.36
75656;BME280;64252;51.094;13.714;2023-05-29T03:05:08;100731.03;;;8.69;92.01
75656;BME280;64252;51.094;13.714;2023-05-29T03:15:59;100736.41;;;8.58;91.77
75656;BME280;64252;51.094;13.714;2023-05-29T03:18:25;100738.97;;;8.48;92.46
75656;BME280;64252;51.094;13.714;2023-05-29T03:28:24;100731.34;;;8.48;92.29
75656;BME280;64252;51.094;13.714;2023-05-29T03:31:12;100733.81;;;8.50;92.16
75656;BME280;64252;51.094;13.714;2023-05-29T03:41:39;100743.59;;;8.56;91.95
75656;BME280;64252;51.094;13.714;2023-05-29T03:51:53;100752.72;;;8.68;91.10
75656;BME280;64252;51.094;13.714;2023-05-29T04:02:58;100754.09;;;8.94;90.65
75656;BME280;64252;51.094;13.714;2023-05-29T04:05:38;100762.69;;;9.01;89.72
75656;BME280;64252;51.094;13.714;2023-05-29T04:08:15;100765.69;;;9.08;89.91
75656;BME280;64252;51.094;13.714;2023-05-29T04:21:48;100775.44;;;9.52;87.83
75656;BME280;64252;51.094;13.714;2023-05-29T04:24:14;100776.78;;;9.58;87.00
75656;BME280;64252;51.094;13.714;2023-05-29T04:26:41;100773.28;;;9.65;86.30
75656;BME280;64252;51.094;13.714;2023-05-29T04:29:11;100775.88;;;9.74;85.75
75656;BME280;64252;51.094;13.714;2023-05-29T04:31:39;100771.97;;;9.82;86.20
75656;BME280;64252;51.094;13.714;2023-05-29T04:34:05;100777.75;;;9.89;85.69
75656;BME280;64252;51.094;13.714;2023-05-29T04:36:33;100776.41;;;10.02;85.89
75656;BME280;64252;51.094;13.714;2023-05-29T04:41:36;100783.91;;;10.17;83.12
75656;BME280;64252;51.094;13.714;2023-05-29T04:44:07;100793.09;;;10.33;82.61
75656;BME280;64252;51.094;13.714;2023-05-29T04:47:04;100798.38;;;10.61;80.25
75656;BME280;64252;51.094;13.714;2023-05-29T04:49:31;100787.13;;;10.65;81.31
75656;BME280;64252;51.094;13.714;2023-05-29T04:51:58;100787.56;;;10.67;81.08
75656;BME280;64252;51.094;13.714;2023-05-29T04:54:29;100785.19;;;10.69;81.02
75656;BME280;64252;51.094;13.714;2023-05-29T04:56:56;100788.16;;;10.79;80.35
75656;BME280;64252;51.094;13.714;2023-05-29T04:59:26;100792.78;;;10.91;80.24
75656;BME280;64252;51.094;13.714;2023-05-29T05:01:53;100790.16;;;11.05;79.58
75656;BME280;64252;51.094;13.714;2023-05-29T05:04:18;100789.56;;;11.22;78.34
75656;BME280;64252;51.094;13.714;2023-05-29T05:06:45;100779.47;;;13.59;71.19
75656;BME280;64252;51.094;13.714;2023-05-29T05:09:11;100777.94;;;16.56;60.88
75656;BME280;64252;51.094;13.714;2023-05-29T05:11:38;100773.44;;;18.51;54.04
75656;BME280;64252;51.094;13.714;2023-05-29T05:14:05;100774.97;;;20.21;49.31
75656;BME280;64252;51.094;13.714;2023-05-29T05:16:31;100782.59;;;21.53;47.00
75656;BME280;64252;51.094;13.714;2023-05-29T05:18:58;100778.81;;;21.56;46.13
75656;BME280;64252;51.094;13.714;2023-05-29T05:21:24;100778.19;;;21.77;44.26
75656;BME280;64252;51.094;13.714;2023-05-29T05:23:50;100782.97;;;22.09;43.39
75656;BME280;64252;51.094;13.714;2023-05-29T05:26:19;100779.03;;;22.92;42.81
75656;BME280;64252;51.094;13.714;2023-05-29T05:28:46;100786.97;;;23.56;40.96
75656;BME280;64252;51.094;13.714;2023-05-29T05:31:13;100778.84;;;23.86;41.51
75656;BME280;64252;51.094;13.714;2023-05-29T05:33:38;100776.22;;;24.31;39.12
75656;BME280;64252;51.094;13.714;2023-05-29T05:36:04;100787.16;;;24.05;40.21
75656;BME280;64252;51.094;13.714;2023-05-29T05:40:58;100786.06;;;24.92;38.47
75656;BME280;64252;51.094;13.714;2023-05-29T05:43:44;100785.66;;;24.23;38.88
75656;BME280;64252;51.094;13.714;2023-05-29T05:46:17;100795.75;;;25.16;37.37
75656;BME280;64252;51.094;13.714;2023-05-29T05:48:46;100788.09;;;24.82;38.23
75656;BME280;64252;51.094;13.714;2023-05-29T06:09:39;100786.00;;;28.10;34.73
75656;BME280;64252;51.094;13.714;2023-05-29T06:12:07;100788.97;;;27.71;34.17
75656;BME280;64252;51.094;13.714;2023-05-29T06:22:09;100798.53;;;27.00;34.74
75656;BME280;64252;51.094;13.714;2023-05-29T06:24:37;100797.38;;;27.07;35.62
75656;BME280;64252;51.094;13.714;2023-05-29T06:27:12;100807.69;;;25.64;35.42
75656;BME280;64252;51.094;13.714;2023-05-29T06:37:16;100809.59;;;27.11;35.04
75656;BME280;64252;51.094;13.714;2023-05-29T06:43:06;100808.66;;;26.72;34.99
75656;BME280;64252;51.094;13.714;2023-05-29T06:45:38;100806.09;;;26.65;35.93
75656;BME280;64252;51.094;13.714;2023-05-29T06:48:04;100805.47;;;27.65;36.87
75656;BME280;64252;51.094;13.714;2023-05-29T06:50:31;100803.22;;;27.99;34.79
75656;BME280;64252;51.094;13.714;2023-05-29T06:53:03;100816.22;;;26.79;35.02
75656;BME280;64252;51.094;13.714;2023-05-29T06:55:38;100813.97;;;27.06;35.14
75656;BME280;64252;51.094;13.714;2023-05-29T06:58:06;100811.03;;;26.50;35.01
75656;BME280;64252;51.094;13.714;2023-05-29T07:00:32;100818.38;;;26.00;35.55
75656;BME280;64252;51.094;13.714;2023-05-29T07:03:18;100821.69;;;26.77;35.02
75656;BME280;64252;51.094;13.714;2023-05-29T07:05:44;100812.69;;;26.33;34.02
75656;BME280;64252;51.094;13.714;2023-05-29T07:08:10;100817.00;;;25.59;36.82
75656;BME280;64252;51.094;13.714;2023-05-29T07:10:35;100826.41;;;26.65;36.23
75656;BME280;64252;51.094;13.714;2023-05-29T07:13:01;100820.91;;;27.47;35.72
75656;BME280;64252;51.094;13.714;2023-05-29T07:15:28;100811.88;;;27.45;35.24
75656;BME280;64252;51.094;13.714;2023-05-29T07:17:56;100816.50;;;27.76;36.05
75656;BME280;64252;51.094;13.714;2023-05-29T07:20:25;100821.41;;;27.22;35.02
75656;BME280;64252;51.094;13.714;2023-05-29T07:22:51;100820.34;;;26.54;34.14
75656;BME280;64252;51.094;13.714;2023-05-29T07:25:18;100822.78;;;25.59;37.53
75656;BME280;64252;51.094;13.714;2023-05-29T07:27:44;100822.56;;;26.08;35.97
75656;BME280;64252;51.094;13.714;2023-05-29T07:30:11;100823.06;;;26.57;35.75
75656;BME280;64252;51.094;13.714;2023-05-29T07:32:37;100822.75;;;27.21;33.97
75656;BME280;64252;51.094;13.714;2023-05-29T07:35:10;100822.78;;;27.74;33.77
75656;BME280;64252;51.094;13.714;2023-05-29T07:37:45;100822.75;;;27.21;34.71
75656;BME280;64252;51.094;13.714;2023-05-29T07:46:23;100819.00;;;27.68;35.90
75656;BME280;64252;51.094;13.714;2023-05-29T07:49:02;100823.41;;;25.63;36.97
75656;BME280;64252;51.094;13.714;2023-05-29T07:51:30;100829.53;;;24.48;41.28
75656;BME280;64252;51.094;13.714;2023-05-29T07:54:01;100825.28;;;25.20;39.06
75656;BME280;64252;51.094;13.714;2023-05-29T07:56:38;100827.72;;;25.40;38.91
75656;BME280;64252;51.094;13.714;2023-05-29T07:59:06;100827.00;;;23.98;42.60
75656;BME280;64252;51.094;13.714;2023-05-29T08:01:34;100834.88;;;23.41;43.35
75656;BME280;64252;51.094;13.714;2023-05-29T08:04:00;100833.31;;;23.84;42.10
75656;BME280;64252;51.094;13.714;2023-05-29T08:06:30;100827.69;;;24.64;41.21
75656;BME280;64252;51.094;13.714;2023-05-29T08:08:58;100831.25;;;23.63;39.32
75656;BME280;64252;51.094;13.714;2023-05-29T08:11:24;100838.19;;;23.18;39.83
75656;BME280;64252;51.094;13.714;2023-05-29T08:13:51;100836.63;;;22.92;38.50
75656;BME280;64252;51.094;13.714;2023-05-29T08:16:17;100827.19;;;22.91;40.85
75656;BME280;64252;51.094;13.714;2023-05-29T08:18:43;100827.09;;;22.82;41.33
75656;BME280;64252;51.094;13.714;2023-05-29T08:21:08;100837.44;;;22.54;38.28
75656;BME280;64252;51.094;13.714;2023-05-29T08:23:37;100838.59;;;22.31;37.38
75656;BME280;64252;51.094;13.714;2023-05-29T08:26:07;100838.91;;;22.46;38.52
75656;BME280;64252;51.094;13.714;2023-05-29T08:28:33;100832.63;;;22.77;39.60
75656;BME280;64252;51.094;13.714;2023-05-29T08:30:59;100830.63;;;22.48;39.03
75656;BME280;64252;51.094;13.714;2023-05-29T08:33:24;100824.66;;;22.81;39.54
75656;BME280;64252;51.094;13.714;2023-05-29T08:35:50;100823.19;;;23.23;40.21
75656;BME280;64252;51.094;13.714;2023-05-29T08:38:17;100826.78;;;23.14;40.14
75656;BME280;64252;51.094;13.714;2023-05-29T08:40:42;100822.75;;;23.12;39.87
75656;BME280;64252;51.094;13.714;2023-05-29T08:43:16;100826.47;;;23.00;37.68
75656;BME280;64252;51.094;13.714;2023-05-29T08:45:43;100820.50;;;22.69;40.11
75656;BME280;64252;51.094;13.714;2023-05-29T08:48:11;100822.81;;;22.61;38.56
75656;BME280;64252;51.094;13.714;2023-05-29T08:50:56;100827.63;;;22.90;38.09
75656;BME280;64252;51.094;13.714;2023-05-29T08:53:23;100819.78;;;23.03;40.58
75656;BME280;64252;51.094;13.714;2023-05-29T08:55:52;100828.75;;;23.05;39.00
75656;BME280;64252;51.094;13.714;2023-05-29T08:58:19;100816.13;;;22.64;37.56
75656;BME280;64252;51.094;13.714;2023-05-29T09:00:49;100814.53;;;22.76;38.00
75656;BME280;64252;51.094;13.714;2023-05-29T09:03:15;100823.28;;;22.47;38.41
75656;BME280;64252;51.094;13.714;2023-05-29T09:05:41;100823.94;;;22.51;37.30
75656;BME280;64252;51.094;13.714;2023-05-29T09:08:11;100822.81;;;22.61;38.17
75656;BME280;64252;51.094;13.714;2023-05-29T09:10:44;100824.53;;;22.84;37.97
75656;BME280;64252;51.094;13.714;2023-05-29T09:13:11;100828.31;;;22.94;38.69
75656;BME280;64252;51.094;13.714;2023-05-29T09:15:40;100825.00;;;22.83;36.71
75656;BME280;64252;51.094;13.714;2023-05-29T09:18:08;100824.19;;;22.95;36.38
75656;BME280;64252;51.094;13.714;2023-05-29T09:20:34;100816.22;;;22.99;36.47
75656;BME280;64252;51.094;13.714;2023-05-29T09:23:05;100814.28;;;22.96;36.55
75656;BME280;64252;51.094;13.714;2023-05-29T09:25:33;100820.66;;;23.25;36.63
75656;BME280;64252;51.094;13.714;2023-05-29T09:28:04;100826.91;;;23.11;35.43
75656;BME280;64252;51.094;13.714;2023-05-29T09:30:42;100812.34;;;22.80;37.42
75656;BME280;64252;51.094;13.714;2023-05-29T09:33:11;100816.16;;;23.24;38.27
75656;BME280;64252;51.094;13.714;2023-05-29T09:35:47;100826.69;;;23.05;35.32
75656;BME280;64252;51.094;13.714;2023-05-29T09:38:14;100829.25;;;23.38;37.78
75656;BME280;64252;51.094;13.714;2023-05-29T09:40:44;100829.94;;;22.69;36.02
75656;BME280;64252;51.094;13.714;2023-05-29T09:45:45;100825.56;;;22.90;38.63
75656;BME280;64252;51.094;13.714;2023-05-29T09:51:03;100819.78;;;23.37;37.57
75656;BME280;64252;51.094;13.714;2023-05-29T09:53:29;100819.75;;;23.15;35.40
75656;BME280;64252;51.094;13.714;2023-05-29T09:55:56;100822.50;;;23.19;36.30
75656;BME280;64252;51.094;13.714;2023-05-29T09:58:23;100819.31;;;23.04;35.79
75656;BME280;64252;51.094;13.714;2023-05-29T10:00:51;100809.69;;;22.86;35.00
75656;BME280;64252;51.094;13.714;2023-05-29T10:03:17;100805.38;;;23.03;36.22
75656;BME280;64252;51.094;13.714;2023-05-29T10:05:47;100807.06;;;23.13;36.02
75656;BME280;64252;51.094;13.714;2023-05-29T10:08:19;100808.56;;;23.17;35.96
75656;BME280;64252;51.094;13.714;2023-05-29T10:10:49;100811.44;;;23.17;36.31
75656;BME280;64252;51.094;13.714;2023-05-29T10:13:20;100820.94;;;23.05;36.62
75656;BME280;64252;51.094;13.714;2023-05-29T10:15:49;100825.22;;;23.35;36.19
75656;BME280;64252;51.094;13.714;2023-05-29T10:18:24;100824.66;;;23.28;36.77
75656;BME280;64252;51.094;13.714;2023-05-29T10:20:51;100814.28;;;23.30;36.63
75656;BME280;64252;51.094;13.714;2023-05-29T10:23:30;100812.41;;;23.71;36.91
75656;BME280;64252;51.094;13.714;2023-05-29T10:26:14;100810.53;;;23.77;34.30
75656;BME280;64252;51.094;13.714;2023-05-29T10:28:49;100820.16;;;23.83;33.52
75656;BME280;64252;51.094;13.714;2023-05-29T10:31:22;100805.44;;;24.33;34.72
75656;BME280;64252;51.094;13.714;2023-05-29T10:36:44;100804.88;;;23.95;33.87
75656;BME280;64252;51.094;13.714;2023-05-29T10:39:12;100801.66;;;23.93;35.23
75656;BME280;64252;51.094;13.714;2023-05-29T10:41:38;100794.72;;;24.12;34.47
75656;BME280;64252;51.094;13.714;2023-05-29T10:47:01;100785.78;;;24.99;35.82
75656;BME280;64252;51.094;13.714;2023-05-29T10:49:28;100790.44;;;25.24;34.55
75656;BME280;64252;51.094;13.714;2023-05-29T10:51:54;100794.47;;;25.26;32.50
75656;BME280;64252;51.094;13.714;2023-05-29T10:54:22;100794.94;;;25.16;32.92
75656;BME280;64252;51.094;13.714;2023-05-29T10:56:52;100798.63;;;24.18;33.57
75656;BME280;64252;51.094;13.714;2023-05-29T10:59:20;100795.44;;;23.73;34.64
75656;BME280;64252;51.094;13.714;2023-05-29T11:01:46;100787.66;;;23.26;35.10
75656;BME280;64252;51.094;13.714;2023-05-29T11:06:43;100795.09;;;23.71;36.65
75656;BME280;64252;51.094;13.714;2023-05-29T11:09:38;100790.09;;;23.93;33.65
75656;BME280;64252;51.094;13.714;2023-05-29T11:12:24;100766.06;;;23.87;35.39
75656;BME280;64252;51.094;13.714;2023-05-29T11:15:11;100775.63;;;24.05;34.93
75656;BME280;64252;51.094;13.714;2023-05-29T11:20:07;100774.59;;;24.61;36.83
75656;BME280;64252;51.094;13.714;2023-05-29T11:25:15;100775.28;;;24.34;36.35
75656;BME280;64252;51.094;13.714;2023-05-29T11:27:44;100781.63;;;24.20;33.76
75656;BME280;64252;51.094;13.714;2023-05-29T11:30:10;100784.78;;;23.82;35.91
75656;BME280;64252;51.094;13.714;2023-05-29T11:32:36;100782.56;;;23.65;35.84
75656;BME280;64252;51.094;13.714;2023-05-29T11:35:09;100777.59;;;23.87;35.46
75656;BME280;64252;51.094;13.714;2023-05-29T11:37:36;100780.84;;;23.98;34.29
75656;BME280;64252;51.094;13.714;2023-05-29T11:40:09;100767.72;;;23.75;33.43
75656;BME280;64252;51.094;13.714;2023-05-29T11:42:35;100767.47;;;23.60;34.28
75656;BME280;64252;51.094;13.714;2023-05-29T11:45:15;100774.50;;;23.81;34.84
75656;BME280;64252;51.094;13.714;2023-05-29T11:47:59;100762.78;;;24.37;35.66
75656;BME280;64252;51.094;13.714;2023-05-29T11:50:32;100760.13;;;25.38;33.83
75656;BME280;64252;51.094;13.714;2023-05-29T11:52:59;100769.72;;;25.44;32.47
75656;BME280;64252;51.094;13.714;2023-05-29T11:55:26;100770.72;;;25.22;33.57
75656;BME280;64252;51.094;13.714;2023-05-29T11:58:00;100761.19;;;24.36;34.12
75656;BME280;64252;51.094;13.714;2023-05-29T12:00:37;100767.69;;;23.97;35.51
75656;BME280;64252;51.094;13.714;2023-05-29T12:03:04;100766.78;;;23.78;35.84
75656;BME280;64252;51.094;13.714;2023-05-29T12:05:45;100777.66;;;23.52;35.66
75656;BME280;64252;51.094;13.714;2023-05-29T12:08:11;100778.72;;;23.46;35.75
75656;BME280;64252;51.094;13.714;2023-05-29T12:10:37;100767.28;;;23.77;36.00
75656;BME280;64252;51.094;13.714;2023-05-29T12:13:03;100755.84;;;23.95;35.13
75656;BME280;64252;51.094;13.714;2023-05-29T12:15:28;100751.50;;;24.21;35.26
75656;BME280;64252;51.094;13.714;2023-05-29T12:17:55;100759.63;;;24.54;34.17
75656;BME280;64252;51.094;13.714;2023-05-29T12:20:24;100754.31;;;24.43;33.82
75656;BME280;64252;51.094;13.714;2023-05-29T12:22:52;100755.63;;;24.51;34.28
75656;BME280;64252;51.094;13.714;2023-05-29T12:25:21;100735.56;;;24.47;33.28
75656;BME280;64252;51.094;13.714;2023-05-29T12:27:47;100746.59;;;24.89;32.76
75656;BME280;64252;51.094;13.714;2023-05-29T12:30:19;100745.09;;;24.84;35.34
75656;BME280;64252;51.094;13.714;2023-05-29T12:32:47;100744.03;;;25.27;36.54
75656;BME280;64252;51.094;13.714;2023-05-29T12:35:16;100732.47;;;25.64;37.02
75656;BME280;64252;51.094;13.714;2023-05-29T12:38:02;100733.44;;;25.52;33.30
75656;BME280;64252;51.094;13.714;2023-05-29T12:40:31;100741.75;;;25.77;34.81
75656;BME280;64252;51.094;13.714;2023-05-29T12:43:05;100735.38;;;25.18;34.18
75656;BME280;64252;51.094;13.714;2023-05-29T12:45:33;100738.94;;;24.55;33.65
75656;BME280;64252;51.094;13.714;2023-05-29T12:50:35;100742.91;;;23.34;34.11
75656;BME280;64252;51.094;13.714;2023-05-29T12:53:05;100731.81;;;23.67;33.80
75656;BME280;64252;51.094;13.714;2023-05-29T12:55:36;100744.94;;;23.99;33.89
75656;BME280;64252;51.094;13.714;2023-05-29T12:58:05;100731.50;;;24.36;33.82
75656;BME280;64252;51.094;13.714;2023-05-29T13:00:33;100733.03;;;24.77;33.59
75656;BME280;64252;51.094;13.714;2023-05-29T13:02:59;100736.66;;;25.26;32.75
75656;BME280;64252;51.094;13.714;2023-05-29T13:05:24;100724.13;;;25.29;31.50
75656;BME280;64252;51.094;13.714;2023-05-29T13:07:51;100726.69;;;25.46;33.35
75656;BME280;64252;51.094;13.714;2023-05-29T13:10:18;100725.72;;;25.21;33.36
75656;BME280;64252;51.094;13.714;2023-05-29T13:12:44;100728.88;;;24.78;34.71
75656;BME280;64252;51.094;13.714;2023-05-29T13:15:12;100721.78;;;24.61;35.13
75656;BME280;64252;51.094;13.714;2023-05-29T13:17:39;100715.44;;;25.02;36.23
75656;BME280;64252;51.094;13.714;2023-05-29T13:20:11;100723.09;;;24.78;34.23
75656;BME280;64252;51.094;13.714;2023-05-29T13:22:41;100708.06;;;25.19;34.72
75656;BME280;64252;51.094;13.714;2023-05-29T13:25:09;100718.69;;;24.95;34.68
75656;BME280;64252;51.094;13.714;2023-05-29T13:27:40;100713.81;;;25.28;33.58
75656;BME280;64252;51.094;13.714;2023-05-29T13:30:08;100710.59;;;25.45;34.18
75656;BME280;64252;51.094;13.714;2023-05-29T13:32:35;100702.56;;;25.67;33.85
75656;BME280;64252;51.094;13.714;2023-05-29T13:35:01;100718.16;;;25.51;34.16
75656;BME280;64252;51.094;13.714;2023-05-29T13:37:28;100704.69;;;25.21;32.96
75656;BME280;64252;51.094;13.714;2023-05-29T13:39:54;100707.41;;;24.97;34.76
75656;BME280;64252;51.094;13.714;2023-05-29T13:42:21;100699.03;;;25.45;34.46
75656;BME280;64252;51.094;13.714;2023-05-29T13:44:47;100706.09;;;25.44;32.42
75656;BME280;64252;51.094;13.714;2023-05-29T13:47:13;100697.09;;;25.69;35.24
75656;BME280;64252;51.094;13.714;2023-05-29T13:49:39;100703.88;;;25.20;32.53
75656;BME280;64252;51.094;13.714;2023-05-29T13:52:05;100691.28;;;25.78;34.31
75656;BME280;64252;51.094;13.714;2023-05-29T13:54:31;100694.75;;;25.91;33.70
75656;BME280;64252;51.094;13.714;2023-05-29T13:57:01;100703.88;;;25.39;33.07
75656;BME280;64252;51.094;13.714;2023-05-29T13:59:29;100702.25;;;24.83;33.34
75656;BME280;64252;51.094;13.714;2023-05-29T14:01:54;100704.81;;;25.54;33.76
75656;BME280;64252;51.094;13.714;2023-05-29T14:04:20;100689.34;;;25.84;34.18
75656;BME280;64252;51.094;13.714;2023-05-29T14:06:46;100696.50;;;25.56;32.78
75656;BME280;64252;51.094;13.714;2023-05-29T14:09:11;100696.84;;;25.91;36.32
75656;BME280;64252;51.094;13.714;2023-05-29T14:11:37;100692.19;;;25.93;34.04
75656;BME280;64252;51.094;13.714;2023-05-29T14:14:03;100690.06;;;25.52;33.05
75656;BME280;64252;51.094;13.714;2023-05-29T14:16:29;100696.88;;;25.82;36.79
75656;BME280;64252;51.094;13.714;2023-05-29T14:18:55;100691.19;;;25.36;32.82
75656;BME280;64252;51.094;13.714;2023-05-29T14:21:21;100684.41;;;25.48;33.82
75656;BME280;64252;51.094;13.714;2023-05-29T14:23:47;100697.81;;;25.00;33.92
75656;BME280;64252;51.094;13.714;2023-05-29T14:26:13;100697.09;;;24.78;35.01
75656;BME280;64252;51.094;13.714;2023-05-29T14:28:39;100696.34;;;24.19;34.42
75656;BME280;64252;51.094;13.714;2023-05-29T14:31:05;100697.53;;;24.00;36.22
75656;BME280;64252;51.094;13.714;2023-05-29T14:33:31;100701.03;;;23.95;38.00
75656;BME280;64252;51.094;13.714;2023-05-29T14:35:57;100705.78;;;23.89;37.74
75656;BME280;64252;51.094;13.714;2023-05-29T14:38:24;100713.69;;;23.67;35.77
75656;BME280;64252;51.094;13.714;2023-05-29T14:40:51;100703.78;;;23.68;37.06
75656;BME280;64252;51.094;13.714;2023-05-29T14:43:17;100703.78;;;23.68;35.55
75656;BME280;64252;51.094;13.714;2023-05-29T14:45:43;100706.31;;;23.66;37.12
75656;BME280;64252;51.094;13.714;2023-05-29T14:48:11;100707.91;;;23.67;38.23
75656;BME280;64252;51.094;13.714;2023-05-29T14:50:37;100714.50;;;23.45;35.18
75656;BME280;64252;51.094;13.714;2023-05-29T14:53:03;100706.03;;;23.29;37.14
75656;BME280;64252;51.094;13.714;2023-05-29T14:55:28;100704.16;;;23.13;40.87
75656;BME280;64252;51.094;13.714;2023-05-29T14:57:56;100701.72;;;22.90;39.58
75656;BME280;64252;51.094;13.714;2023-05-29T15:00:21;100702.25;;;22.63;38.69
75656;BME280;64252;51.094;13.714;2023-05-29T15:02:47;100699.50;;;22.60;40.40
75656;BME280;64252;51.094;13.714;2023-05-29T15:05:12;100699.28;;;22.54;39.41
75656;BME280;64252;51.094;13.714;2023-05-29T15:07:39;100691.81;;;22.44;39.35
75656;BME280;64252;51.094;13.714;2023-05-29T15:10:05;100698.50;;;22.41;38.88
75656;BME280;64252;51.094;13.714;2023-05-29T15:12:32;100699.41;;;22.38;39.10
75656;BME280;64252;51.094;13.714;2023-05-29T15:14:58;100700.09;;;22.42;39.25
75656;BME280;64252;51.094;13.714;2023-05-29T15:17:23;100695.03;;;22.33;39.93
75656;BME280;64252;51.094;13.714;2023-05-29T15:19:49;100690.19;;;22.43;37.83
75656;BME280;64252;51.094;13.714;2023-05-29T15:22:15;100688.44;;;22.58;38.26
75656;BME280;64252;51.094;13.714;2023-05-29T15:24:40;100696.47;;;22.76;37.36
75656;BME280;64252;51.094;13.714;2023-05-29T15:27:07;100691.25;;;22.84;38.68
75656;BME280;64252;51.094;13.714;2023-05-29T15:29:34;100695.91;;;23.03;38.15
75656;BME280;64252;51.094;13.714;2023-05-29T15:32:02;100688.19;;;23.00;35.72
75656;BME280;64252;51.094;13.714;2023-05-29T15:34:28;100691.81;;;23.13;37.34
75656;BME280;64252;51.094;13.714;2023-05-29T15:36:54;100685.66;;;23.24;37.81
75656;BME280;64252;51.094;13.714;2023-05-29T15:39:20;100685.53;;;23.27;37.02
75656;BME280;64252;51.094;13.714;2023-05-29T15:41:46;100682.94;;;23.20;36.92
75656;BME280;64252;51.094;13.714;2023-05-29T15:44:12;100695.31;;;23.08;37.48
75656;BME280;64252;51.094;13.714;2023-05-29T15:46:38;100682.44;;;23.00;37.78
75656;BME280;64252;51.094;13.714;2023-05-29T15:49:06;100682.00;;;22.89;37.48
75656;BME280;64252;51.094;13.714;2023-05-29T15:51:32;100685.25;;;22.91;37.42
75656;BME280;64252;51.094;13.714;2023-05-29T15:53:58;100688.41;;;22.71;37.18
75656;BME280;64252;51.094;13.714;2023-05-29T15:56:24;100684.84;;;22.67;37.21
75656;BME280;64252;51.094;13.714;2023-05-29T15:58:53;100682.53;;;22.74;38.91
75656;BME280;64252;51.094;13.714;2023-05-29T16:01:19;100687.72;;;22.67;40.15
75656;BME280;64252;51.094;13.714;2023-05-29T16:03:45;100679.06;;;22.80;40.05
75656;BME280;64252;51.094;13.714;2023-05-29T16:06:10;100687.03;;;22.75;39.23
75656;BME280;64252;51.094;13.714;2023-05-29T16:08:36;100683.81;;;22.73;40.43
75656;BME280;64252;51.094;13.714;2023-05-29T16:11:02;100687.97;;;22.72;39.64
75656;BME280;64252;51.094;13.714;2023-05-29T16:13:31;100682.75;;;22.67;38.50
75656;BME280;64252;51.094;13.714;2023-05-29T16:15:59;100688.97;;;22.66;41.91
75656;BME280;64252;51.094;13.714;2023-05-29T16:18:25;100686.69;;;22.73;41.93
75656;BME280;64252;51.094;13.714;2023-05-29T16:20:50;100689.47;;;22.64;42.65
75656;BME280;64252;51.094;13.714;2023-05-29T16:23:16;100692.25;;;22.55;40.23
75656;BME280;64252;51.094;13.714;2023-05-29T16:25:44;100697.66;;;22.53;43.45
75656;BME280;64252;51.094;13.714;2023-05-29T16:28:10;100699.41;;;22.38;40.14
75656;BME280;64252;51.094;13.714;2023-05-29T16:30:37;100695.84;;;22.34;43.86
75656;BME280;64252;51.094;13.714;2023-05-29T16:33:04;100697.69;;;22.28;40.48
75656;BME280;64252;51.094;13.714;2023-05-29T16:35:30;100696.19;;;22.23;39.73
75656;BME280;64252;51.094;13.714;2023-05-29T16:37:56;100694.03;;;22.15;39.20
75656;BME280;64252;51.094;13.714;2023-05-29T16:40:22;100694.03;;;22.02;40.74
75656;BME280;64252;51.094;13.714;2023-05-29T16:42:48;100699.28;;;21.91;41.91
75656;BME280;64252;51.094;13.714;2023-05-29T16:45:14;100695.97;;;21.93;41.66
75656;BME280;64252;51.094;13.714;2023-05-29T16:47:41;100705.16;;;21.87;41.65
75656;BME280;64252;51.094;13.714;2023-05-29T16:50:07;100702.28;;;21.75;41.81
75656;BME280;64252;51.094;13.714;2023-05-29T16:52:33;100715.63;;;21.69;41.98
75656;BME280;64252;51.094;13.714;2023-05-29T16:54:59;100690.75;;;21.62;40.25
75656;BME280;64252;51.094;13.714;2023-05-29T16:57:27;100705.25;;;21.59;41.38
75656;BME280;64252;51.094;13.714;2023-05-29T16:59:57;100701.06;;;21.47;40.66
75656;BME280;64252;51.094;13.714;2023-05-29T17:02:27;100700.38;;;21.43;41.27
75656;BME280;64252;51.094;13.714;2023-05-29T17:04:56;100710.84;;;21.37;41.23
75656;BME280;64252;51.094;13.714;2023-05-29T17:07:22;100701.34;;;21.24;41.37
75656;BME280;64252;51.094;13.714;2023-05-29T17:09:47;100703.19;;;21.18;41.65
75656;BME280;64252;51.094;13.714;2023-05-29T17:12:14;100704.09;;;21.15;43.24
75656;BME280;64252;51.094;13.714;2023-05-29T17:14:40;100711.97;;;21.11;41.67
75656;BME280;64252;51.094;13.714;2023-05-29T17:17:06;100708.06;;;21.05;41.43
75656;BME280;64252;51.094;13.714;2023-05-29T17:19:32;100713.06;;;21.00;41.97
75656;BME280;64252;51.094;13.714;2023-05-29T17:21:58;100712.09;;;20.91;41.27
75656;BME280;64252;51.094;13.714;2023-05-29T17:24:25;100720.50;;;20.85;41.47
75656;BME280;64252;51.094;13.714;2023-05-29T17:26:54;100718.06;;;20.84;42.65